createdAt,value
2022-11-15T00:00:30.072Z,64.88
2022-11-15T00:03:00.307Z,64.65
2022-11-15T00:05:30.444Z,64.86
2022-11-15T00:08:00.684Z,64.52
2022-11-15T00:10:30.809Z,64.99
2022-11-15T00:13:00.997Z,64.90
2022-11-15T00:15:31.103Z,64.93
2022-11-15T00:18:01.254Z,64.94
2022-11-15T00:20:31.561Z,64.68
2022-11-15T00:23:01.751Z,64.90
2022-11-15T00:25:32.671Z,64.90
2022-11-15T00:28:03.550Z,64.73
2022-11-15T00:30:33.771Z,64.91
2022-11-15T00:33:05.876Z,65.00
2022-11-15T00:35:36.461Z,64.86
2022-11-15T00:38:06.602Z,64.83
2022-11-15T00:40:36.827Z,65.13
2022-11-15T00:43:06.933Z,64.68
2022-11-15T00:45:37.327Z,64.75
2022-11-15T00:48:07.515Z,65.06
2022-11-15T00:50:37.603Z,64.91
2022-11-15T00:53:07.820Z,64.81
2022-11-15T00:55:38.007Z,64.58
2022-11-15T00:58:08.280Z,65.01
2022-11-15T01:00:38.450Z,64.93
2022-11-15T01:03:08.608Z,65.21
2022-11-15T01:05:39.587Z,65.12
2022-11-15T01:08:16.975Z,65.19
2022-11-15T01:10:47.166Z,65.12
2022-11-15T01:13:17.369Z,65.17
2022-11-15T01:15:47.611Z,65.06
2022-11-15T01:18:17.706Z,64.90
2022-11-15T01:20:47.857Z,65.14
2022-11-15T01:23:17.989Z,65.15
2022-11-15T01:25:48.086Z,65.22
2022-11-15T01:28:18.214Z,65.58
2022-11-15T01:30:48.325Z,65.51
2022-11-15T01:33:18.474Z,65.38
2022-11-15T01:35:48.573Z,65.31
2022-11-15T01:38:18.703Z,65.32
2022-11-15T01:40:49.323Z,65.44
2022-11-15T01:43:34.730Z,65.70
2022-11-15T01:46:07.813Z,65.01
2022-11-15T01:48:37.971Z,65.20
2022-11-15T01:51:12.223Z,65.60
2022-11-15T01:53:46.458Z,65.48
2022-11-15T01:56:24.540Z,65.22
2022-11-15T01:58:57.688Z,65.29
2022-11-15T02:01:29.524Z,65.66
2022-11-15T02:04:03.543Z,65.35
2022-11-15T02:06:33.954Z,65.72
2022-11-15T02:09:04.456Z,65.84
2022-11-15T02:11:34.927Z,65.64
2022-11-15T02:14:06.620Z,65.34
2022-11-15T02:16:48.877Z,65.64
2022-11-15T02:19:27.725Z,65.46
2022-11-15T02:22:23.810Z,66.04
2022-11-15T02:25:21.128Z,65.93
2022-11-15T02:28:03.038Z,65.55
2022-11-15T02:31:02.494Z,65.62
2022-11-15T02:33:59.386Z,65.99
2022-11-15T02:36:40.741Z,65.79
2022-11-15T02:39:44.570Z,65.97
2022-11-15T02:42:45.604Z,65.52
2022-11-15T02:45:22.643Z,65.80
2022-11-15T02:47:57.940Z,65.73
2022-11-15T02:50:30.912Z,65.79
2022-11-15T02:53:01.076Z,65.88
2022-11-15T02:55:36.387Z,65.87
2022-11-15T02:58:45.364Z,66.10
2022-11-15T03:01:32.976Z,65.69
2022-11-15T03:04:17.268Z,65.99
2022-11-15T03:07:17.676Z,66.47
2022-11-15T03:09:55.329Z,66.07
2022-11-15T03:12:44.897Z,66.24
2022-11-15T03:15:39.178Z,66.47
2022-11-15T03:18:19.596Z,65.83
2022-11-15T03:20:51.548Z,66.28
2022-11-15T03:23:22.097Z,66.02
2022-11-15T03:25:54.791Z,66.47
2022-11-15T03:28:45.645Z,66.47
2022-11-15T03:31:36.710Z,66.16
2022-11-15T03:34:11.846Z,66.05
2022-11-15T03:36:42.285Z,66.06
2022-11-15T03:39:20.263Z,65.98
2022-11-15T03:42:03.060Z,66.07
2022-11-15T03:44:59.954Z,66.38
2022-11-15T03:47:37.604Z,66.08
2022-11-15T03:50:35.009Z,66.34
2022-11-15T03:53:05.222Z,65.70
2022-11-15T03:55:35.299Z,65.87
2022-11-15T03:58:05.799Z,65.62
2022-11-15T04:00:36.340Z,65.98
2022-11-15T04:03:06.905Z,65.63
2022-11-15T04:05:37.041Z,65.90
2022-11-15T04:08:07.234Z,65.79
2022-11-15T04:10:37.336Z,66.01
2022-11-15T04:13:07.589Z,65.80
2022-11-15T04:15:37.725Z,66.04
2022-11-15T04:18:08.011Z,65.88
2022-11-15T04:20:56.650Z,65.78
2022-11-15T04:23:45.084Z,66.03
2022-11-15T04:26:21.843Z,65.77
2022-11-15T04:29:10.570Z,65.85
2022-11-15T04:31:40.715Z,66.02
2022-11-15T04:34:10.811Z,65.84
2022-11-15T04:36:59.409Z,65.72
2022-11-15T04:39:29.545Z,65.90
2022-11-15T04:41:59.691Z,65.82
2022-11-15T04:44:29.821Z,65.98
2022-11-15T04:47:00.079Z,66.04
2022-11-15T04:49:30.243Z,66.08
2022-11-15T04:52:00.443Z,65.85
2022-11-15T04:54:30.678Z,66.05
2022-11-15T04:57:00.801Z,65.81
2022-11-15T04:59:30.979Z,66.16
2022-11-15T05:02:01.013Z,66.09
2022-11-15T05:04:31.365Z,65.90
2022-11-15T05:07:01.785Z,66.24
2022-11-15T05:09:31.960Z,66.36
2022-11-15T05:12:02.109Z,66.25
2022-11-15T05:14:32.281Z,66.48
2022-11-15T05:17:02.420Z,65.95
2022-11-15T05:19:32.557Z,66.04
2022-11-15T05:22:02.645Z,66.42
2022-11-15T05:24:32.814Z,66.13
2022-11-15T05:27:02.940Z,66.09
2022-11-15T05:29:33.090Z,66.67
2022-11-15T05:32:06.760Z,66.71
2022-11-15T05:34:36.994Z,66.44
2022-11-15T05:37:07.126Z,66.55
2022-11-15T05:39:37.418Z,66.80
2022-11-15T05:42:14.489Z,66.52
2022-11-15T05:44:49.323Z,66.36
2022-11-15T05:47:26.084Z,66.78
2022-11-15T05:49:57.293Z,66.41
2022-11-15T05:52:32.800Z,66.83
2022-11-15T05:55:04.413Z,66.58
2022-11-15T05:57:34.588Z,66.75
2022-11-15T06:00:05.719Z,66.97
2022-11-15T06:02:36.311Z,66.86
2022-11-15T06:05:06.892Z,66.57
2022-11-15T06:07:37.160Z,66.51
2022-11-15T06:10:08.078Z,66.28
2022-11-15T06:12:38.201Z,66.64
2022-11-15T06:15:09.230Z,66.93
2022-11-15T06:17:39.487Z,66.87
2022-11-15T06:20:10.194Z,67.06
2022-11-15T06:22:40.344Z,67.06
2022-11-15T06:25:10.484Z,67.05
2022-11-15T06:27:40.550Z,67.26
2022-11-15T06:30:11.200Z,67.15
2022-11-15T06:32:41.340Z,67.20
2022-11-15T06:35:11.489Z,66.89
2022-11-15T06:37:44.968Z,66.77
2022-11-15T06:40:15.269Z,67.23
2022-11-15T06:42:45.417Z,67.04
2022-11-15T06:45:15.617Z,66.92
2022-11-15T06:47:48.981Z,67.37
2022-11-15T06:50:19.187Z,67.18
2022-11-15T06:52:49.481Z,67.42
2022-11-15T06:55:19.601Z,67.24
2022-11-15T06:57:51.700Z,67.16
2022-11-15T07:00:23.464Z,67.17
2022-11-15T07:02:53.612Z,67.03
2022-11-15T07:05:23.800Z,66.97
2022-11-15T07:07:58.633Z,67.27
2022-11-15T07:10:29.331Z,67.27
2022-11-15T07:12:59.813Z,67.38
2022-11-15T07:15:29.942Z,67.49
2022-11-15T07:18:02.800Z,67.72
2022-11-15T07:20:32.918Z,67.98
2022-11-15T07:23:04.788Z,67.85
2022-11-15T07:25:35.588Z,68.01
2022-11-15T07:28:06.062Z,67.84
2022-11-15T07:30:39.951Z,67.51
2022-11-15T07:33:12.652Z,67.74
2022-11-15T07:35:43.790Z,67.46
2022-11-15T07:38:13.913Z,67.38
2022-11-15T07:40:43.983Z,67.79
2022-11-15T07:43:14.519Z,67.91
2022-11-15T07:45:46.410Z,67.59
2022-11-15T07:48:16.632Z,67.66
2022-11-15T07:50:46.786Z,67.82
2022-11-15T07:53:16.949Z,67.87
2022-11-15T07:55:47.227Z,67.52
2022-11-15T07:58:17.439Z,67.94
2022-11-15T08:00:47.873Z,67.55
2022-11-15T08:03:18.486Z,67.85
2022-11-15T08:05:52.474Z,67.85
2022-11-15T08:08:22.500Z,67.98
2022-11-15T08:10:52.734Z,68.00
2022-11-15T08:13:22.909Z,68.22
2022-11-15T08:15:57.485Z,68.19
2022-11-15T08:18:28.103Z,68.61
2022-11-15T08:21:02.426Z,68.38
2022-11-15T08:23:33.474Z,68.36
2022-11-15T08:26:05.219Z,68.29
2022-11-15T08:28:35.390Z,67.86
2022-11-15T08:31:06.218Z,67.57
2022-11-15T08:33:36.690Z,67.53
2022-11-15T08:36:07.293Z,67.52
2022-11-15T08:38:37.869Z,67.75
2022-11-15T08:41:08.416Z,67.67
2022-11-15T08:43:38.712Z,67.61
2022-11-15T08:46:14.133Z,67.92
2022-11-15T08:48:44.636Z,67.85
2022-11-15T08:51:15.915Z,67.69
2022-11-15T08:53:46.381Z,67.66
2022-11-15T08:56:17.513Z,67.67
2022-11-15T08:58:48.507Z,67.49
2022-11-15T09:01:22.905Z,67.54
2022-11-15T09:03:53.851Z,67.69
2022-11-15T09:06:24.467Z,67.87
2022-11-15T09:08:54.861Z,67.75
2022-11-15T09:11:25.169Z,67.78
2022-11-15T09:13:55.651Z,67.88
2022-11-15T09:16:25.711Z,67.68
2022-11-15T09:18:56.004Z,68.12
2022-11-15T09:21:26.068Z,67.95
2022-11-15T09:23:56.985Z,67.89
2022-11-15T09:26:27.221Z,67.90
2022-11-15T09:28:58.264Z,67.98
2022-11-15T09:31:28.601Z,67.99
2022-11-15T09:33:58.771Z,67.87
2022-11-15T09:36:29.015Z,67.79
2022-11-15T09:38:59.777Z,67.95
2022-11-15T09:41:58.621Z,68.09
2022-11-15T09:44:47.227Z,67.63
2022-11-15T09:47:32.642Z,68.26
2022-11-15T09:50:11.456Z,67.75
2022-11-15T09:52:46.930Z,67.97
2022-11-15T09:55:22.529Z,67.69
2022-11-15T09:58:18.706Z,67.28
2022-11-15T10:00:53.952Z,67.57
2022-11-15T10:03:37.550Z,67.44
2022-11-15T10:06:11.036Z,67.41
2022-11-15T10:09:03.112Z,67.43
2022-11-15T10:11:38.284Z,67.52
2022-11-15T10:14:22.680Z,68.12
2022-11-15T10:17:26.770Z,67.78
2022-11-15T10:20:06.023Z,68.00
2022-11-15T10:22:42.429Z,68.07
2022-11-15T10:25:19.924Z,68.05
2022-11-15T10:28:00.818Z,67.96
2022-11-15T10:30:42.493Z,67.88
2022-11-15T10:33:20.476Z,68.10
2022-11-15T10:36:10.529Z,67.93
2022-11-15T10:38:49.564Z,68.44
2022-11-15T10:41:28.364Z,68.58
2022-11-15T10:44:13.341Z,69.04
2022-11-15T10:46:48.064Z,68.48
2022-11-15T10:49:27.079Z,68.40
2022-11-15T10:51:59.222Z,68.08
2022-11-15T10:54:43.580Z,67.78
2022-11-15T10:57:17.132Z,68.24
2022-11-15T10:59:50.819Z,67.96
2022-11-15T11:02:38.267Z,67.75
2022-11-15T11:05:29.324Z,68.33
2022-11-15T11:08:02.712Z,68.41
2022-11-15T11:10:51.919Z,68.69
2022-11-15T11:13:29.312Z,68.80
2022-11-15T11:16:15.630Z,68.87
2022-11-15T11:18:48.507Z,68.67
2022-11-15T11:21:54.860Z,68.66
2022-11-15T11:24:37.805Z,68.78
2022-11-15T11:27:20.079Z,68.66
2022-11-15T11:30:01.326Z,68.78
2022-11-15T11:32:34.405Z,68.41
2022-11-15T11:35:32.268Z,68.40
2022-11-15T11:38:16.526Z,68.38
2022-11-15T11:41:08.031Z,68.59
2022-11-15T11:43:58.572Z,68.57
2022-11-15T11:46:39.011Z,68.43
2022-11-15T11:49:19.966Z,68.86
2022-11-15T11:52:18.538Z,68.73
2022-11-15T11:54:56.882Z,67.90
2022-11-15T11:57:34.727Z,68.59
2022-11-15T12:00:19.929Z,68.46
2022-11-15T12:03:08.732Z,68.83
2022-11-15T12:05:46.157Z,68.60
2022-11-15T12:08:41.293Z,68.65
2022-11-15T12:11:25.188Z,68.76
2022-11-15T12:14:02.575Z,68.15
2022-11-15T12:16:34.545Z,68.46
2022-11-15T12:19:06.287Z,68.57
2022-11-15T12:21:42.426Z,68.35
2022-11-15T12:24:29.842Z,68.06
2022-11-15T12:27:26.493Z,68.23
2022-11-15T12:30:04.474Z,67.95
2022-11-15T12:32:50.262Z,68.01
2022-11-15T12:35:36.035Z,68.51
2022-11-15T12:38:10.487Z,68.41
2022-11-15T12:41:18.124Z,71.24
2022-11-15T12:43:50.197Z,69.83
2022-11-15T12:46:29.538Z,70.92
2022-11-15T12:49:10.610Z,70.24
2022-11-15T12:51:43.965Z,69.35
2022-11-15T12:54:23.251Z,68.14
2022-11-15T12:57:05.338Z,67.31
2022-11-15T12:59:56.120Z,67.02
2022-11-15T13:02:35.120Z,67.05
2022-11-15T13:05:20.598Z,67.25
2022-11-15T13:07:50.848Z,66.63
2022-11-15T13:10:33.825Z,67.03
2022-11-15T13:13:10.558Z,67.46
2022-11-15T13:15:57.657Z,68.34
2022-11-15T13:18:32.900Z,67.12
2022-11-15T13:21:25.695Z,67.00
2022-11-15T13:23:56.662Z,67.93
2022-11-15T13:26:27.769Z,67.24
2022-11-15T13:28:58.081Z,66.89
2022-11-15T13:31:35.861Z,66.82
2022-11-15T13:34:50.530Z,66.35
2022-11-15T13:37:21.423Z,65.93
2022-11-15T13:39:51.750Z,66.29
2022-11-15T13:42:22.497Z,66.39
2022-11-15T13:45:01.985Z,66.00
2022-11-15T13:47:33.064Z,66.24
2022-11-15T13:50:09.648Z,65.93
2022-11-15T13:52:45.341Z,65.68
2022-11-15T13:55:20.038Z,65.61
2022-11-15T13:58:00.102Z,66.74
2022-11-15T14:00:43.378Z,67.62
2022-11-15T14:03:23.598Z,68.29
2022-11-15T14:06:16.047Z,68.62
2022-11-15T14:09:12.675Z,68.81
2022-11-15T14:11:56.860Z,69.38
2022-11-15T14:14:28.945Z,69.04
2022-11-15T14:17:00.769Z,72.70
2022-11-15T14:19:32.578Z,73.09
2022-11-15T14:22:29.494Z,74.41
2022-11-15T14:25:22.638Z,74.05
2022-11-15T14:28:14.234Z,75.31
2022-11-15T14:30:49.078Z,73.75
2022-11-15T14:33:35.368Z,73.97
2022-11-15T14:36:16.155Z,73.94
2022-11-15T14:38:47.987Z,74.01
2022-11-15T14:41:24.131Z,73.98
2022-11-15T14:43:54.662Z,74.03
2022-11-15T14:46:24.822Z,74.03
2022-11-15T14:48:55.037Z,74.44
2022-11-15T14:51:25.373Z,74.26
2022-11-15T14:53:56.471Z,73.35
2022-11-15T14:56:26.608Z,74.29
2022-11-15T14:58:56.695Z,74.05
2022-11-15T15:01:27.427Z,73.86
2022-11-15T15:03:59.700Z,73.61
2022-11-15T15:06:31.787Z,74.14
2022-11-15T15:09:01.953Z,74.04
2022-11-15T15:11:32.734Z,73.98
2022-11-15T15:14:02.841Z,74.21
2022-11-15T15:16:33.115Z,74.18
2022-11-15T15:19:03.949Z,73.80
2022-11-15T15:21:37.448Z,73.97
2022-11-15T15:24:13.362Z,74.70
2022-11-15T15:26:44.605Z,74.23
2022-11-15T15:29:14.814Z,74.16
2022-11-15T15:31:44.986Z,74.79
2022-11-15T15:34:16.774Z,74.60
2022-11-15T15:36:47.217Z,73.48
2022-11-15T15:39:17.306Z,74.31
2022-11-15T15:41:47.454Z,73.58
2022-11-15T15:44:17.596Z,73.90
2022-11-15T15:46:47.740Z,74.45
2022-11-15T15:49:17.918Z,73.25
2022-11-15T15:51:48.039Z,73.83
2022-11-15T15:54:18.227Z,74.22
2022-11-15T15:56:52.171Z,74.05
2022-11-15T15:59:25.217Z,75.93
2022-11-15T16:01:55.416Z,73.84
2022-11-15T16:04:27.040Z,73.30
2022-11-15T16:07:01.910Z,73.79
2022-11-15T16:09:50.587Z,74.42
2022-11-15T16:12:20.709Z,73.69
2022-11-15T16:14:50.900Z,73.70
2022-11-15T16:17:32.846Z,73.64
2022-11-15T16:20:07.483Z,74.38
2022-11-15T16:22:37.615Z,74.42
2022-11-15T16:25:08.037Z,74.27
2022-11-15T16:27:39.735Z,74.35
2022-11-15T16:30:15.683Z,74.04
2022-11-15T16:32:46.482Z,73.56
2022-11-15T16:35:18.072Z,73.56
2022-11-15T16:37:48.560Z,74.29
2022-11-15T16:40:28.669Z,73.31
2022-11-15T16:43:00.110Z,73.58
2022-11-15T16:45:32.058Z,73.86
2022-11-15T16:48:02.555Z,73.52
2022-11-15T16:50:41.610Z,73.75
2022-11-15T16:53:12.294Z,73.58
2022-11-15T16:55:42.544Z,73.59
2022-11-15T16:58:12.979Z,73.98
2022-11-15T17:00:43.133Z,73.91
2022-11-15T17:03:13.278Z,73.79
2022-11-15T17:05:43.377Z,73.28
2022-11-15T17:08:13.619Z,73.32
2022-11-15T17:10:44.351Z,73.51
2022-11-15T17:13:14.985Z,73.53
2022-11-15T17:15:45.203Z,73.26
2022-11-15T17:18:15.880Z,73.69
2022-11-15T17:20:46.129Z,73.17
2022-11-15T17:23:16.372Z,73.20
2022-11-15T17:25:46.518Z,73.62
2022-11-15T17:28:16.699Z,73.11
2022-11-15T17:30:46.842Z,72.75
2022-11-15T17:33:17.037Z,72.09
2022-11-15T17:35:47.086Z,71.51
2022-11-15T17:38:17.280Z,72.37
2022-11-15T17:40:47.462Z,72.88
2022-11-15T17:43:17.591Z,72.47
2022-11-15T17:45:47.777Z,71.80
2022-11-15T17:48:17.932Z,71.93
2022-11-15T17:50:59.030Z,72.56
2022-11-15T17:53:33.686Z,73.09
2022-11-15T17:56:04.463Z,72.91
2022-11-15T17:58:35.369Z,72.81
2022-11-15T18:01:14.552Z,72.74
2022-11-15T18:03:45.127Z,72.36
2022-11-15T18:06:16.778Z,72.35
2022-11-15T18:08:49.722Z,71.59
2022-11-15T18:11:22.719Z,71.68
2022-11-15T18:14:01.594Z,71.60
2022-11-15T18:16:34.146Z,71.44
2022-11-15T18:19:13.417Z,71.71
2022-11-15T18:21:57.716Z,71.67
2022-11-15T18:24:35.918Z,71.29
2022-11-15T18:27:06.986Z,71.69
2022-11-15T18:29:38.194Z,72.14
2022-11-15T18:32:11.785Z,71.76
2022-11-15T18:34:42.036Z,72.58
2022-11-15T18:37:12.086Z,72.56
2022-11-15T18:39:44.192Z,72.37
2022-11-15T18:42:14.683Z,72.02
2022-11-15T18:44:45.189Z,72.69
2022-11-15T18:47:15.405Z,71.49
2022-11-15T18:49:45.680Z,72.33
2022-11-15T18:52:15.684Z,72.64
2022-11-15T18:54:45.843Z,72.52
2022-11-15T18:57:15.916Z,72.58
2022-11-15T18:59:46.081Z,72.40
2022-11-15T19:02:16.145Z,72.29
2022-11-15T19:04:46.331Z,72.68
2022-11-15T19:07:16.441Z,72.27
2022-11-15T19:09:46.877Z,72.70
2022-11-15T19:12:16.941Z,72.55
2022-11-15T19:14:47.092Z,72.24
2022-11-15T19:17:17.207Z,72.77
2022-11-15T19:19:47.339Z,72.58
2022-11-15T19:22:17.451Z,72.82
2022-11-15T19:24:47.628Z,72.32
2022-11-15T19:27:17.814Z,72.22
2022-11-15T19:29:47.904Z,72.51
2022-11-15T19:32:17.998Z,72.71
2022-11-15T19:34:48.210Z,72.36
2022-11-15T19:37:18.333Z,72.49
2022-11-15T19:39:48.481Z,72.47
2022-11-15T19:42:18.709Z,72.87
2022-11-15T19:44:48.880Z,72.62
2022-11-15T19:47:19.082Z,72.32
2022-11-15T19:49:49.176Z,72.29
2022-11-15T19:52:21.002Z,72.59
2022-11-15T19:54:51.462Z,72.20
2022-11-15T19:57:21.593Z,72.86
2022-11-15T19:59:55.420Z,72.83
2022-11-15T20:02:26.611Z,72.82
2022-11-15T20:04:56.758Z,72.54
2022-11-15T20:07:26.998Z,72.40
2022-11-15T20:09:57.210Z,72.93
2022-11-15T20:12:28.003Z,72.81
2022-11-15T20:15:01.178Z,72.72
2022-11-15T20:17:31.415Z,72.48
2022-11-15T20:20:02.025Z,72.65
2022-11-15T20:22:32.345Z,72.94
2022-11-15T20:25:02.628Z,72.88
2022-11-15T20:27:32.815Z,72.63
2022-11-15T20:30:04.234Z,72.82
2022-11-15T20:32:34.244Z,72.33
2022-11-15T20:35:04.690Z,72.65
2022-11-15T20:37:35.545Z,72.45
2022-11-15T20:40:06.566Z,72.33
2022-11-15T20:42:36.822Z,72.28
2022-11-15T20:45:07.713Z,72.10
2022-11-15T20:47:37.781Z,71.98
2022-11-15T20:50:35.317Z,72.31
2022-11-15T20:52:59.083Z,72.06
2022-11-15T20:55:29.259Z,72.36
2022-11-15T20:57:59.528Z,72.19
2022-11-15T21:00:29.765Z,72.44
2022-11-15T21:03:00.170Z,71.87
2022-11-15T21:05:30.420Z,71.72
2022-11-15T21:08:00.700Z,71.56
2022-11-15T21:10:49.724Z,71.92
2022-11-15T21:13:20.238Z,72.29
2022-11-15T21:15:50.535Z,72.73
2022-11-15T21:18:20.717Z,72.28
2022-11-15T21:20:52.260Z,72.48
2022-11-15T21:23:22.517Z,72.56
2022-11-15T21:25:53.037Z,72.18
2022-11-15T21:28:24.235Z,71.96
2022-11-15T21:30:57.125Z,71.77
2022-11-15T21:33:28.827Z,72.23
2022-11-15T21:35:59.212Z,72.41
2022-11-15T21:38:29.722Z,72.66
2022-11-15T21:41:04.906Z,72.50
2022-11-15T21:43:35.990Z,72.23
2022-11-15T21:46:07.367Z,72.67
2022-11-15T21:48:40.350Z,72.22
2022-11-15T21:51:13.083Z,72.10
2022-11-15T21:53:43.188Z,71.99
2022-11-15T21:56:13.691Z,72.09
2022-11-15T21:58:43.781Z,71.98
2022-11-15T22:01:32.769Z,72.47
2022-11-15T22:04:03.263Z,72.02
2022-11-15T22:06:35.150Z,72.14
2022-11-15T22:09:06.550Z,72.06
2022-11-15T22:11:37.310Z,72.03
2022-11-15T22:14:07.826Z,72.45
2022-11-15T22:16:38.318Z,72.13
2022-11-15T22:19:08.653Z,72.70
2022-11-15T22:21:40.826Z,72.58
2022-11-15T22:24:11.158Z,72.52
2022-11-15T22:26:43.946Z,72.74
2022-11-15T22:29:14.353Z,72.16
2022-11-15T22:31:44.705Z,71.89
2022-11-15T22:34:16.074Z,72.36
2022-11-15T22:37:18.204Z,72.09
2022-11-15T22:39:37.031Z,71.94
2022-11-15T22:42:07.543Z,72.03
2022-11-15T22:44:38.056Z,72.41
2022-11-15T22:47:08.399Z,71.82
2022-11-15T22:49:38.924Z,72.06
2022-11-15T22:52:09.383Z,72.49
2022-11-15T22:54:40.256Z,72.88
2022-11-15T22:57:13.888Z,71.90
2022-11-15T22:59:44.936Z,72.29
2022-11-15T23:02:15.434Z,72.96
2022-11-15T23:04:46.668Z,72.66
2022-11-15T23:07:17.389Z,72.54
2022-11-15T23:09:52.252Z,72.29
2022-11-15T23:12:41.916Z,72.18
2022-11-15T23:15:13.038Z,72.50
2022-11-15T23:17:45.019Z,72.47
2022-11-15T23:20:41.987Z,72.11
2022-11-15T23:23:13.192Z,73.00
2022-11-15T23:25:44.428Z,72.45
2022-11-15T23:28:15.053Z,72.56
2022-11-15T23:31:04.175Z,72.69
2022-11-15T23:33:52.939Z,72.62
2022-11-15T23:36:23.858Z,72.69
2022-11-15T23:38:54.534Z,73.03
2022-11-15T23:41:25.318Z,72.81
2022-11-15T23:43:55.833Z,73.16
2022-11-15T23:46:26.161Z,73.25
2022-11-15T23:48:56.764Z,72.97
2022-11-15T23:51:27.073Z,72.83
2022-11-15T23:53:57.688Z,73.19
2022-11-15T23:56:28.259Z,72.97
2022-11-15T23:58:58.909Z,72.46
